Time;durP1;ratioP1;P1;durP2;ratioP2;P2;SDS_P1;SDS_P2;PMS_P1;PMS_P2;Temp;Humidity;BMP_temperature;BMP_pressure;BME280_temperature;BME280_humidity;BME280_pressure;Samples;Min_cycle;Max_cycle;Signal;HPM_P1;HPM_P2
2022/12/12 00:02:12;;;;;;;1.55;0.63;;;;;;;;;;5075817;28;20033;-42
2022/12/12 00:04:37;;;;;;;1.25;0.88;;;;;;;;;;5075788;28;20082;-41
2022/12/12 00:07:03;;;;;;;0.85;0.80;;;;;;;;;;5075617;28;20042;-41
2022/12/12 00:09:28;;;;;;;0.88;0.65;;;;;;;;;;5075726;28;20512;-41
2022/12/12 00:11:53;;;;;;;1.00;0.90;;;;;;;;;;5075428;28;20024;-41
2022/12/12 00:14:19;;;;;;;0.90;0.50;;;;;;;;;;5075469;28;20128;-41
2022/12/12 00:16:44;;;;;;;1.58;0.95;;;;;;;;;;5075355;28;20475;-41
2022/12/12 00:19:09;;;;;;;0.65;0.65;;;;;;;;;;5075414;28;20024;-41
2022/12/12 00:21:35;;;;;;;1.10;1.00;;;;;;;;;;5075160;28;20032;-41
2022/12/12 00:24:00;;;;;;;2.30;0.70;;;;;;;;;;5075339;28;20026;-41
2022/12/12 00:26:28;;;;;;;0.63;0.63;;;;;;;;;;5075028;28;20494;-41
2022/12/12 00:28:54;;;;;;;0.50;0.50;;;;;;;;;;5075234;28;20078;-41
2022/12/12 00:31:20;;;;;;;1.05;0.75;;;;;;;;;;5074923;28;20028;-41
2022/12/12 00:33:47;;;;;;;0.52;0.52;;;;;;;;;;5074790;28;20499;-41
2022/12/12 00:36:13;;;;;;;3.33;0.70;;;;;;;;;;5075026;28;20035;-41
2022/12/12 00:38:38;;;;;;;1.55;0.80;;;;;;;;;;5075136;28;20463;-42
2022/12/12 00:41:04;;;;;;;1.05;0.90;;;;;;;;;;5074646;28;20475;-41
2022/12/12 00:43:30;;;;;;;0.95;0.77;;;;;;;;;;5074628;28;20455;-41
2022/12/12 00:45:57;;;;;;;0.73;0.73;;;;;;;;;;5074950;28;20115;-41
2022/12/12 00:48:22;;;;;;;0.68;0.60;;;;;;;;;;5074712;28;20046;-41
2022/12/12 00:50:48;;;;;;;1.20;0.70;;;;;;;;;;5074547;28;20056;-41
2022/12/12 00:53:15;;;;;;;0.25;0.25;;;;;;;;;;5074482;28;20550;-41
2022/12/12 00:55:40;;;;;;;0.85;0.85;;;;;;;;;;5073509;28;20136;-41
2022/12/12 00:58:06;;;;;;;0.50;0.50;;;;;;;;;;5073368;28;20119;-41
2022/12/12 01:00:32;;;;;;;0.32;0.32;;;;;;;;;;5072329;28;20098;-41
2022/12/12 01:02:57;;;;;;;0.95;0.70;;;;;;;;;;5072702;28;20028;-43
2022/12/12 01:05:23;;;;;;;1.15;0.98;;;;;;;;;;5073320;28;20025;-41
2022/12/12 01:07:48;;;;;;;1.85;0.85;;;;;;;;;;5073239;28;20073;-41
2022/12/12 01:10:14;;;;;;;0.63;0.60;;;;;;;;;;5073075;28;20036;-41
2022/12/12 01:12:40;;;;;;;1.15;1.05;;;;;;;;;;5073417;28;20032;-41
2022/12/12 01:15:06;;;;;;;1.42;1.27;;;;;;;;;;5073036;28;20052;-42
2022/12/12 01:17:36;;;;;;;1.00;0.93;;;;;;;;;;5073017;28;20024;-41
2022/12/12 01:20:06;;;;;;;1.30;0.65;;;;;;;;;;5072890;28;20405;-41
2022/12/12 01:22:31;;;;;;;1.65;0.50;;;;;;;;;;5073263;28;20020;-41
2022/12/12 01:24:57;;;;;;;0.73;0.63;;;;;;;;;;5073173;28;20510;-41
2022/12/12 01:27:22;;;;;;;0.73;0.73;;;;;;;;;;5072678;28;20550;-41
2022/12/12 01:29:48;;;;;;;0.40;0.40;;;;;;;;;;5072288;28;20497;-41
2022/12/12 01:32:13;;;;;;;1.60;0.90;;;;;;;;;;5072440;28;20032;-42
2022/12/12 01:34:38;;;;;;;1.00;1.00;;;;;;;;;;5072266;28;20499;-41
2022/12/12 01:37:04;;;;;;;2.42;0.70;;;;;;;;;;5072489;28;20379;-41
2022/12/12 01:39:29;;;;;;;0.82;0.73;;;;;;;;;;5072470;28;20052;-41
2022/12/12 01:41:54;;;;;;;0.77;0.65;;;;;;;;;;5072147;28;20493;-41
2022/12/12 01:44:38;;;;;;;1.42;0.50;;;;;;;;;;5072140;28;20059;-42
2022/12/12 01:47:04;;;;;;;0.50;0.50;;;;;;;;;;5072069;28;20028;-42
2022/12/12 01:49:32;;;;;;;1.35;0.77;;;;;;;;;;5072032;28;20020;-41
2022/12/12 01:51:59;;;;;;;0.70;0.70;;;;;;;;;;5072175;28;20360;-41
2022/12/12 01:54:26;;;;;;;1.33;0.70;;;;;;;;;;5027704;28;1269775;-42
2022/12/12 01:56:53;;;;;;;0.65;0.60;;;;;;;;;;5072947;28;20029;-41
2022/12/12 01:59:20;;;;;;;0.70;0.70;;;;;;;;;;5072754;28;20040;-41
2022/12/12 02:01:46;;;;;;;1.35;0.80;;;;;;;;;;5072742;28;20051;-41
2022/12/12 02:04:11;;;;;;;1.15;0.70;;;;;;;;;;5072982;28;20107;-41
2022/12/12 02:06:37;;;;;;;1.13;0.68;;;;;;;;;;5073020;28;20107;-41
2022/12/12 02:09:06;;;;;;;1.58;0.80;;;;;;;;;;5071364;28;20554;-41
2022/12/12 02:11:34;;;;;;;0.55;0.55;;;;;;;;;;5072551;28;20038;-41
2022/12/12 02:13:59;;;;;;;1.45;0.85;;;;;;;;;;5071774;28;20028;-41
2022/12/12 02:16:34;;;;;;;1.30;0.95;;;;;;;;;;5072520;28;20032;-41
2022/12/12 02:19:18;;;;;;;1.30;1.20;;;;;;;;;;5072580;28;20059;-41
2022/12/12 02:21:50;;;;;;;0.95;0.82;;;;;;;;;;5072385;28;20068;-41
2022/12/12 02:24:34;;;;;;;0.77;0.75;;;;;;;;;;5072479;28;20465;-41
2022/12/12 02:27:11;;;;;;;0.90;0.88;;;;;;;;;;5072261;28;20028;-41
2022/12/12 02:30:09;;;;;;;1.25;0.60;;;;;;;;;;5072547;28;20040;-41
2022/12/12 02:32:49;;;;;;;1.55;0.88;;;;;;;;;;5037705;28;20089;-41
2022/12/12 02:35:25;;;;;;;0.55;0.55;;;;;;;;;;5072006;28;20040;-41
2022/12/12 02:38:10;;;;;;;0.60;0.60;;;;;;;;;;5072182;28;20107;-41
2022/12/12 02:40:41;;;;;;;2.17;0.77;;;;;;;;;;5071664;28;20048;-41
2022/12/12 02:43:21;;;;;;;1.42;1.02;;;;;;;;;;5071921;28;20043;-41
2022/12/12 02:45:53;;;;;;;2.00;0.82;;;;;;;;;;5071952;28;20471;-41
2022/12/12 02:48:39;;;;;;;1.05;0.95;;;;;;;;;;5071826;28;20028;-42
2022/12/12 02:51:05;;;;;;;1.40;0.85;;;;;;;;;;5071364;28;20119;-41
2022/12/12 02:53:30;;;;;;;0.50;0.50;;;;;;;;;;5071732;28;20032;-41
2022/12/12 02:56:06;;;;;;;0.65;0.60;;;;;;;;;;5071526;28;20552;-41
2022/12/12 02:58:33;;;;;;;1.60;1.02;;;;;;;;;;5072029;28;20029;-41
2022/12/12 03:01:15;;;;;;;1.58;0.90;;;;;;;;;;5071506;28;20032;-42
2022/12/12 03:09:33;;;;;;;1.05;0.70;;;;;;;;;;5071865;28;20036;-41
2022/12/12 03:12:19;;;;;;;0.50;0.50;;;;;;;;;;5071427;28;20111;-41
2022/12/12 03:15:00;;;;;;;1.15;0.60;;;;;;;;;;5071096;28;20123;-41
2022/12/12 03:17:31;;;;;;;1.15;0.90;;;;;;;;;;5053559;28;20127;-41
2022/12/12 03:20:03;;;;;;;0.77;0.77;;;;;;;;;;5071363;28;20466;-41
2022/12/12 03:22:37;;;;;;;1.88;1.00;;;;;;;;;;5071461;28;20060;-41
2022/12/12 03:25:12;;;;;;;1.17;0.90;;;;;;;;;;5071145;28;20043;-41
2022/12/12 03:27:44;;;;;;;0.75;0.70;;;;;;;;;;5071714;28;20025;-41
2022/12/12 03:30:10;;;;;;;0.95;0.68;;;;;;;;;;5071275;28;20094;-41
2022/12/12 03:32:45;;;;;;;1.50;1.20;;;;;;;;;;5071316;28;20528;-41
2022/12/12 03:35:14;;;;;;;0.98;0.75;;;;;;;;;;5071236;28;20086;-41
2022/12/12 03:37:47;;;;;;;4.07;1.42;;;;;;;;;;5071627;28;20027;-41
2022/12/12 03:40:17;;;;;;;1.05;1.00;;;;;;;;;;5071092;28;20033;-41
2022/12/12 03:42:56;;;;;;;2.20;1.08;;;;;;;;;;5071308;28;20467;-41
2022/12/12 03:45:29;;;;;;;0.80;0.80;;;;;;;;;;5071164;28;20029;-41
2022/12/12 03:47:58;;;;;;;1.27;1.17;;;;;;;;;;5071256;28;20093;-41
2022/12/12 03:50:26;;;;;;;1.27;1.17;;;;;;;;;;5069930;28;20139;-41
2022/12/12 03:53:10;;;;;;;1.23;1.08;;;;;;;;;;5071087;28;20035;-42
2022/12/12 03:55:42;;;;;;;1.60;1.33;;;;;;;;;;5071042;28;20246;-41
2022/12/12 03:58:12;;;;;;;1.33;1.10;;;;;;;;;;5069770;28;20021;-41
2022/12/12 04:00:38;;;;;;;2.17;1.20;;;;;;;;;;5070984;28;20364;-43
2022/12/12 04:03:16;;;;;;;1.35;1.00;;;;;;;;;;5071042;28;20024;-41
2022/12/12 04:08:38;;;;;;;3.03;1.25;;;;;;;;;;5070932;28;20395;-41
2022/12/12 04:13:50;;;;;;;1.70;0.73;;;;;;;;;;5071123;28;20433;-41
2022/12/12 04:16:26;;;;;;;1.10;0.95;;;;;;;;;;5071057;28;20024;-41
2022/12/12 04:18:54;;;;;;;1.88;0.88;;;;;;;;;;5070978;28;20537;-41
2022/12/12 04:24:26;;;;;;;0.90;0.90;;;;;;;;;;5071132;28;20052;-41
2022/12/12 04:27:08;;;;;;;1.38;0.77;;;;;;;;;;5070882;28;20013;-41
2022/12/12 04:29:39;;;;;;;1.20;1.10;;;;;;;;;;5071004;28;20436;-41
2022/12/12 04:32:11;;;;;;;1.35;1.02;;;;;;;;;;5070692;28;20020;-42
2022/12/12 04:34:47;;;;;;;2.30;1.60;;;;;;;;;;5070728;28;20086;-41
2022/12/12 04:37:15;;;;;;;1.00;1.00;;;;;;;;;;5071826;28;20028;-41
2022/12/12 04:39:41;;;;;;;1.13;1.02;;;;;;;;;;5074356;28;20154;-41
2022/12/12 04:42:08;;;;;;;1.38;0.90;;;;;;;;;;5074346;28;20078;-41
2022/12/12 04:44:35;;;;;;;0.82;0.82;;;;;;;;;;5074228;28;20149;-41
2022/12/12 04:47:02;;;;;;;9.65;1.20;;;;;;;;;;5072941;28;20032;-41
2022/12/12 04:49:29;;;;;;;2.58;0.90;;;;;;;;;;5074368;28;20024;-41
2022/12/12 04:52:00;;;;;;;1.00;0.98;;;;;;;;;;5074314;28;20496;-41
2022/12/12 04:54:33;;;;;;;1.75;1.65;;;;;;;;;;5074154;28;20415;-41
2022/12/12 04:57:00;;;;;;;2.17;1.38;;;;;;;;;;5074062;28;20036;-41
2022/12/12 04:59:26;;;;;;;1.38;1.27;;;;;;;;;;5074068;28;20242;-41
2022/12/12 05:01:57;;;;;;;2.05;1.63;;;;;;;;;;5073898;28;20542;-41
2022/12/12 05:04:38;;;;;;;0.93;0.90;;;;;;;;;;5073795;28;20094;-40
2022/12/12 05:07:08;;;;;;;1.90;1.38;;;;;;;;;;5074058;28;20386;-41
2022/12/12 05:09:34;;;;;;;1.45;1.35;;;;;;;;;;5073892;28;20028;-41
2022/12/12 05:11:59;;;;;;;2.40;1.08;;;;;;;;;;5073572;28;20036;-41
2022/12/12 05:14:26;;;;;;;0.90;0.82;;;;;;;;;;5074022;28;20028;-41
2022/12/12 05:16:53;;;;;;;2.03;1.27;;;;;;;;;;5073729;28;20467;-41
2022/12/12 05:19:18;;;;;;;1.52;1.27;;;;;;;;;;5073769;28;20024;-41
2022/12/12 05:21:43;;;;;;;1.52;1.38;;;;;;;;;;5073750;28;20099;-41
2022/12/12 05:24:09;;;;;;;2.05;1.50;;;;;;;;;;5073652;28;20070;-41
2022/12/12 05:26:35;;;;;;;2.90;1.20;;;;;;;;;;5073764;28;20074;-41
2022/12/12 05:29:01;;;;;;;5.32;1.63;;;;;;;;;;5073763;28;20104;-40
2022/12/12 05:31:26;;;;;;;1.50;1.40;;;;;;;;;;5073424;28;20487;-40
2022/12/12 05:33:52;;;;;;;1.00;0.88;;;;;;;;;;5072439;28;20056;-41
2022/12/12 05:36:18;;;;;;;2.50;1.58;;;;;;;;;;5073497;28;20220;-41
2022/12/12 05:38:44;;;;;;;0.98;0.82;;;;;;;;;;5073337;28;20029;-42
2022/12/12 05:41:10;;;;;;;2.15;1.55;;;;;;;;;;5073106;28;20024;-41
2022/12/12 05:43:36;;;;;;;2.33;1.20;;;;;;;;;;5073186;28;20466;-41
2022/12/12 05:46:02;;;;;;;2.20;1.58;;;;;;;;;;5073102;28;20036;-41
2022/12/12 05:48:27;;;;;;;1.63;1.40;;;;;;;;;;5070561;28;20024;-41
2022/12/12 05:50:53;;;;;;;1.48;1.38;;;;;;;;;;5071777;28;20036;-41
2022/12/12 05:53:19;;;;;;;2.58;1.20;;;;;;;;;;5073144;28;20437;-41
2022/12/12 05:55:44;;;;;;;2.95;1.35;;;;;;;;;;5072825;28;20105;-41
2022/12/12 05:58:10;;;;;;;2.83;1.33;;;;;;;;;;5073149;28;20173;-40
2022/12/12 06:00:35;;;;;;;3.08;2.17;;;;;;;;;;5072780;28;20597;-41
2022/12/12 06:03:01;;;;;;;1.88;1.20;;;;;;;;;;5072665;28;20020;-41
2022/12/12 06:05:26;;;;;;;2.80;1.73;;;;;;;;;;5072795;28;20036;-41
2022/12/12 06:07:52;;;;;;;3.20;1.20;;;;;;;;;;5072602;28;20039;-41
2022/12/12 06:10:17;;;;;;;3.40;1.15;;;;;;;;;;5072841;28;20103;-41
2022/12/12 06:12:42;;;;;;;2.63;1.33;;;;;;;;;;5071414;28;20479;-41
2022/12/12 06:15:08;;;;;;;3.13;1.48;;;;;;;;;;5072353;28;20059;-41
2022/12/12 06:17:33;;;;;;;2.80;1.77;;;;;;;;;;5072515;28;20109;-41
2022/12/12 06:19:59;;;;;;;1.58;1.30;;;;;;;;;;5072263;28;20036;-41
2022/12/12 06:22:25;;;;;;;1.38;1.27;;;;;;;;;;5072397;28;20516;-41
2022/12/12 06:24:51;;;;;;;3.08;1.23;;;;;;;;;;5072427;28;20032;-41
2022/12/12 06:27:16;;;;;;;1.30;1.20;;;;;;;;;;5072217;28;20032;-41
2022/12/12 06:29:41;;;;;;;2.20;1.20;;;;;;;;;;5072540;28;20494;-41
2022/12/12 06:32:07;;;;;;;3.05;1.50;;;;;;;;;;5072076;28;20032;-41
2022/12/12 06:34:32;;;;;;;1.67;1.58;;;;;;;;;;5072321;28;20040;-41
2022/12/12 06:36:58;;;;;;;1.60;1.20;;;;;;;;;;5072169;28;20788;-41
2022/12/12 06:39:23;;;;;;;2.75;1.50;;;;;;;;;;5071957;28;20749;-41
2022/12/12 06:41:48;;;;;;;2.38;2.17;;;;;;;;;;5072013;28;20016;-41
2022/12/12 06:44:14;;;;;;;3.20;1.98;;;;;;;;;;5071932;28;20032;-41
2022/12/12 06:46:39;;;;;;;1.65;1.52;;;;;;;;;;5072216;28;20039;-41
2022/12/12 06:49:08;;;;;;;2.50;1.55;;;;;;;;;;5071957;28;20197;-41
2022/12/12 06:51:36;;;;;;;2.80;1.50;;;;;;;;;;5071797;28;20016;-41
2022/12/12 06:54:01;;;;;;;4.10;1.63;;;;;;;;;;5071782;28;20517;-40
2022/12/12 06:56:27;;;;;;;2.78;2.25;;;;;;;;;;5071717;28;20049;-41
2022/12/12 06:58:53;;;;;;;3.00;1.63;;;;;;;;;;5071952;28;20035;-41
2022/12/12 07:01:20;;;;;;;1.40;1.05;;;;;;;;;;5071355;28;20017;-41
2022/12/12 07:03:46;;;;;;;2.38;1.50;;;;;;;;;;5071636;28;20487;-41
2022/12/12 07:06:12;;;;;;;3.17;1.90;;;;;;;;;;5071604;28;20025;-41
2022/12/12 07:08:37;;;;;;;2.13;1.40;;;;;;;;;;5071664;28;20027;-40
2022/12/12 07:11:04;;;;;;;3.13;1.85;;;;;;;;;;5071458;28;20467;-41
2022/12/12 07:13:30;;;;;;;1.42;1.08;;;;;;;;;;5071832;28;20116;-41
2022/12/12 07:15:55;;;;;;;4.00;2.28;;;;;;;;;;5071802;28;20115;-41
2022/12/12 07:18:20;;;;;;;3.45;1.48;;;;;;;;;;5071533;28;20068;-41
2022/12/12 07:20:46;;;;;;;6.47;2.83;;;;;;;;;;5071459;28;20035;-41
2022/12/12 07:23:12;;;;;;;5.00;2.25;;;;;;;;;;5071327;28;20029;-41
2022/12/12 07:25:38;;;;;;;1.30;1.20;;;;;;;;;;5071762;28;20020;-41
2022/12/12 07:28:04;;;;;;;2.08;1.83;;;;;;;;;;5070166;28;20050;-41
2022/12/12 07:30:29;;;;;;;2.65;1.83;;;;;;;;;;5071630;28;20016;-41
2022/12/12 07:32:55;;;;;;;6.75;3.60;;;;;;;;;;5070027;28;20033;-41
2022/12/12 07:35:20;;;;;;;4.57;2.65;;;;;;;;;;5069946;28;20094;-41
2022/12/12 07:37:46;;;;;;;3.60;1.95;;;;;;;;;;5071335;28;20063;-41
2022/12/12 07:40:12;;;;;;;4.30;1.70;;;;;;;;;;5071150;28;20025;-40
2022/12/12 07:42:37;;;;;;;2.58;1.67;;;;;;;;;;5071483;28;20025;-40
2022/12/12 07:45:03;;;;;;;1.67;1.58;;;;;;;;;;5071227;28;20017;-41
2022/12/12 07:47:28;;;;;;;4.30;1.85;;;;;;;;;;5071167;28;20529;-41
2022/12/12 07:49:54;;;;;;;1.08;1.05;;;;;;;;;;5071199;28;20494;-41
2022/12/12 07:52:20;;;;;;;2.15;1.45;;;;;;;;;;5071174;28;20040;-41
2022/12/12 07:54:45;;;;;;;2.13;1.75;;;;;;;;;;5070924;28;20049;-41
2022/12/12 07:57:11;;;;;;;1.67;1.50;;;;;;;;;;5071138;28;20035;-41
2022/12/12 07:59:36;;;;;;;5.07;2.90;;;;;;;;;;5071114;28;20040;-41
2022/12/12 08:02:02;;;;;;;2.30;1.67;;;;;;;;;;5070929;28;20368;-41
2022/12/12 08:04:27;;;;;;;3.60;2.88;;;;;;;;;;5071308;28;20059;-41
2022/12/12 08:06:53;;;;;;;3.63;1.83;;;;;;;;;;5071230;28;20037;-41
2022/12/12 08:09:19;;;;;;;1.75;1.58;;;;;;;;;;5071075;28;20020;-41
2022/12/12 08:11:44;;;;;;;2.85;1.95;;;;;;;;;;5071533;28;20442;-41
2022/12/12 08:14:10;;;;;;;3.08;1.70;;;;;;;;;;5074750;28;20052;-41
2022/12/12 08:16:35;;;;;;;2.00;1.58;;;;;;;;;;5074844;28;20132;-41
2022/12/12 08:19:01;;;;;;;2.25;1.77;;;;;;;;;;5074666;28;20111;-41
2022/12/12 08:21:27;;;;;;;2.70;1.77;;;;;;;;;;5074712;28;20036;-41
2022/12/12 08:23:56;;;;;;;2.33;1.58;;;;;;;;;;5074639;28;20143;-41
2022/12/12 08:26:22;;;;;;;3.72;1.45;;;;;;;;;;5074757;28;20107;-41
2022/12/12 08:28:50;;;;;;;4.43;2.08;;;;;;;;;;5073399;28;20427;-41
2022/12/12 08:31:16;;;;;;;1.52;1.42;;;;;;;;;;5074339;28;20483;-41
2022/12/12 08:33:42;;;;;;;2.53;2.05;;;;;;;;;;5073119;28;20451;-41
2022/12/12 08:36:14;;;;;;;2.15;1.95;;;;;;;;;;5074413;28;20103;-41
2022/12/12 08:38:40;;;;;;;1.55;1.33;;;;;;;;;;5074656;28;20036;-41
2022/12/12 08:41:06;;;;;;;0.82;0.82;;;;;;;;;;5074354;28;20708;-41
2022/12/12 08:43:31;;;;;;;2.28;1.50;;;;;;;;;;5074296;28;20160;-41
2022/12/12 08:46:00;;;;;;;8.27;2.30;;;;;;;;;;5074271;28;20016;-41
2022/12/12 08:48:26;;;;;;;1.38;1.02;;;;;;;;;;5074212;28;20032;-41
2022/12/12 08:50:51;;;;;;;1.42;1.33;;;;;;;;;;5074394;28;20025;-41
2022/12/12 08:53:17;;;;;;;1.77;1.63;;;;;;;;;;5074256;28;20387;-41
2022/12/12 08:55:43;;;;;;;2.80;1.95;;;;;;;;;;5073910;28;20052;-42
2022/12/12 08:58:09;;;;;;;1.73;1.30;;;;;;;;;;5073976;28;20028;-41
2022/12/12 09:00:35;;;;;;;1.73;1.15;;;;;;;;;;5073969;28;20036;-41
2022/12/12 09:03:00;;;;;;;4.78;1.98;;;;;;;;;;5074023;28;20494;-41
2022/12/12 09:05:26;;;;;;;2.13;1.33;;;;;;;;;;5074201;28;20058;-41
2022/12/12 09:07:51;;;;;;;1.67;1.20;;;;;;;;;;5073797;28;20107;-41
2022/12/12 09:10:17;;;;;;;2.80;1.42;;;;;;;;;;5073796;28;20028;-41
2022/12/12 09:12:43;;;;;;;2.95;1.77;;;;;;;;;;5074116;28;20033;-41
2022/12/12 09:15:08;;;;;;;1.30;1.20;;;;;;;;;;5073545;28;20028;-41
2022/12/12 09:17:34;;;;;;;2.80;1.83;;;;;;;;;;5074073;28;20029;-41
2022/12/12 09:19:59;;;;;;;2.28;1.92;;;;;;;;;;5073613;28;20032;-41
2022/12/12 09:22:25;;;;;;;2.78;1.63;;;;;;;;;;5073339;28;20028;-41
2022/12/12 09:24:50;;;;;;;1.65;1.55;;;;;;;;;;5073639;28;20104;-41
2022/12/12 09:27:16;;;;;;;2.60;1.27;;;;;;;;;;5073403;28;20082;-41
2022/12/12 09:29:41;;;;;;;3.15;1.45;;;;;;;;;;5073535;28;20158;-41
2022/12/12 09:32:07;;;;;;;2.03;1.73;;;;;;;;;;5073375;28;20075;-41
2022/12/12 09:34:32;;;;;;;1.65;1.40;;;;;;;;;;5073563;28;20028;-41
2022/12/12 09:36:58;;;;;;;2.20;1.58;;;;;;;;;;5073363;28;20150;-41
2022/12/12 09:39:23;;;;;;;1.10;0.88;;;;;;;;;;5073485;28;20032;-41
2022/12/12 09:41:49;;;;;;;1.77;1.58;;;;;;;;;;5073513;28;20086;-41
2022/12/12 09:44:19;;;;;;;2.17;1.02;;;;;;;;;;5073189;28;20025;-41
2022/12/12 09:46:46;;;;;;;2.38;2.00;;;;;;;;;;5073219;28;20035;-42
2022/12/12 09:49:14;;;;;;;1.05;1.02;;;;;;;;;;5073235;28;20024;-41
2022/12/12 09:51:41;;;;;;;1.58;1.35;;;;;;;;;;5073083;28;20107;-41
2022/12/12 09:54:08;;;;;;;1.85;1.35;;;;;;;;;;5072909;28;20043;-41
2022/12/12 09:56:34;;;;;;;2.72;0.98;;;;;;;;;;5073205;28;20120;-41
2022/12/12 09:58:59;;;;;;;1.77;1.45;;;;;;;;;;5073146;28;20436;-41
2022/12/12 10:01:45;;;;;;;3.65;2.72;;;;;;;;;;5072730;28;20033;-41
2022/12/12 10:04:19;;;;;;;2.03;1.10;;;;;;;;;;5060649;28;20475;-41
2022/12/12 10:07:01;;;;;;;0.75;0.75;;;;;;;;;;5071435;28;20045;-41
2022/12/12 10:09:41;;;;;;;1.30;1.20;;;;;;;;;;5072564;28;20042;-41
2022/12/12 10:12:10;;;;;;;1.58;1.25;;;;;;;;;;5072770;28;20466;-41
2022/12/12 10:14:37;;;;;;;2.05;1.15;;;;;;;;;;5072867;28;20032;-41
2022/12/12 10:17:05;;;;;;;1.63;1.02;;;;;;;;;;5072521;28;20031;-41
2022/12/12 10:19:33;;;;;;;2.25;1.45;;;;;;;;;;5072749;28;20025;-41
2022/12/12 10:22:02;;;;;;;1.33;1.23;;;;;;;;;;5072500;28;20029;-41
2022/12/12 10:24:32;;;;;;;4.53;2.45;;;;;;;;;;5071349;28;20029;-41
2022/12/12 10:26:58;;;;;;;3.67;2.13;;;;;;;;;;5072417;28;20040;-41
2022/12/12 10:29:25;;;;;;;2.13;1.45;;;;;;;;;;5072434;28;20115;-41
2022/12/12 10:32:09;;;;;;;3.22;2.30;;;;;;;;;;5072345;28;20074;-41
2022/12/12 10:34:34;;;;;;;5.90;3.08;;;;;;;;;;5071500;28;20036;-44
2022/12/12 10:37:19;;;;;;;6.95;3.13;;;;;;;;;;5072174;28;20025;-41
2022/12/12 10:39:50;;;;;;;2.88;1.90;;;;;;;;;;5072404;28;20082;-41
2022/12/12 10:42:24;;;;;;;5.72;3.10;;;;;;;;;;5070874;28;20036;-41
2022/12/12 10:45:01;;;;;;;6.78;4.75;;;;;;;;;;5072093;28;20041;-41
2022/12/12 10:47:27;;;;;;;8.30;3.42;;;;;;;;;;5071756;28;20040;-41
2022/12/12 10:50:25;;;;;;;5.13;3.22;;;;;;;;;;5071908;28;20032;-41
2022/12/12 10:52:50;;;;;;;7.68;3.15;;;;;;;;;;5048630;28;20421;-41
2022/12/12 10:55:22;;;;;;;2.33;1.90;;;;;;;;;;5071620;28;20048;-41
2022/12/12 10:57:58;;;;;;;7.43;3.80;;;;;;;;;;5072016;28;20029;-41
2022/12/12 11:00:29;;;;;;;2.15;1.25;;;;;;;;;;5071869;28;20036;-41
2022/12/12 11:02:57;;;;;;;2.10;1.95;;;;;;;;;;5071941;28;20036;-41
2022/12/12 11:05:25;;;;;;;5.70;1.85;;;;;;;;;;5071735;28;20023;-41
2022/12/12 11:08:00;;;;;;;2.67;2.35;;;;;;;;;;5071809;28;20379;-42
2022/12/12 11:10:27;;;;;;;4.03;2.13;;;;;;;;;;5070288;28;20505;-41
2022/12/12 11:12:57;;;;;;;2.35;1.63;;;;;;;;;;5071553;28;20032;-44
2022/12/12 11:15:27;;;;;;;3.65;2.40;;;;;;;;;;5071683;28;20037;-41
2022/12/12 11:17:54;;;;;;;2.83;1.75;;;;;;;;;;5071613;28;20028;-41
2022/12/12 11:20:20;;;;;;;1.98;1.85;;;;;;;;;;5071663;28;20141;-41
2022/12/12 11:22:45;;;;;;;1.73;1.50;;;;;;;;;;5070116;28;20577;-41
2022/12/12 11:25:28;;;;;;;3.65;1.75;;;;;;;;;;5071716;28;20034;-41
2022/12/12 11:27:55;;;;;;;2.95;1.80;;;;;;;;;;5071714;28;20037;-41
2022/12/12 11:30:21;;;;;;;2.58;1.50;;;;;;;;;;5071209;28;20077;-41
2022/12/12 11:32:48;;;;;;;1.63;1.52;;;;;;;;;;5071438;28;20036;-41
2022/12/12 11:35:32;;;;;;;2.80;1.48;;;;;;;;;;5071141;28;20041;-41
2022/12/12 11:38:18;;;;;;;1.85;1.40;;;;;;;;;;5071641;28;20375;-41
2022/12/12 11:40:44;;;;;;;1.92;1.30;;;;;;;;;;5070971;28;20036;-41
2022/12/12 11:43:24;;;;;;;3.22;1.67;;;;;;;;;;5071188;28;20480;-41
2022/12/12 11:46:03;;;;;;;1.88;1.23;;;;;;;;;;5072295;28;20359;-41
2022/12/12 11:48:37;;;;;;;2.25;1.63;;;;;;;;;;5075283;28;20067;-41
2022/12/12 11:51:04;;;;;;;3.72;1.70;;;;;;;;;;5075273;28;20475;-41
2022/12/12 11:53:31;;;;;;;1.33;1.23;;;;;;;;;;5075095;28;20078;-41
2022/12/12 11:55:56;;;;;;;3.35;1.75;;;;;;;;;;5073866;28;20052;-41
2022/12/12 11:58:22;;;;;;;2.10;1.58;;;;;;;;;;5075133;28;20032;-41
2022/12/12 12:01:01;;;;;;;2.47;1.25;;;;;;;;;;5075102;28;20021;-41
2022/12/12 12:03:30;;;;;;;2.63;1.80;;;;;;;;;;5075080;28;20054;-41
2022/12/12 12:06:07;;;;;;;1.10;1.00;;;;;;;;;;5075274;28;20024;-41
2022/12/12 12:08:39;;;;;;;1.90;1.20;;;;;;;;;;5075010;28;20059;-41
2022/12/12 12:11:14;;;;;;;4.28;1.15;;;;;;;;;;5074831;28;20368;-41
2022/12/12 12:13:47;;;;;;;2.38;1.40;;;;;;;;;;5074852;28;20483;-41
2022/12/12 12:16:22;;;;;;;1.58;1.30;;;;;;;;;;5074749;28;20040;-41
2022/12/12 12:18:57;;;;;;;1.98;1.38;;;;;;;;;;5074737;28;20020;-41
2022/12/12 12:21:28;;;;;;;1.92;1.08;;;;;;;;;;5074789;28;20071;-41
2022/12/12 12:24:09;;;;;;;1.42;1.30;;;;;;;;;;5075080;28;20063;-41
2022/12/12 12:26:39;;;;;;;1.55;1.10;;;;;;;;;;5073504;28;20028;-41
2022/12/12 12:29:10;;;;;;;4.53;1.25;;;;;;;;;;5074578;28;20024;-41
2022/12/12 12:31:44;;;;;;;2.50;1.38;;;;;;;;;;5074596;28;20065;-41
2022/12/12 12:34:12;;;;;;;3.13;1.10;;;;;;;;;;5074619;28;20402;-41
2022/12/12 12:36:38;;;;;;;4.03;1.50;;;;;;;;;;5074468;28;20016;-41
2022/12/12 12:39:13;;;;;;;1.42;1.33;;;;;;;;;;5074460;28;20035;-41
2022/12/12 12:41:56;;;;;;;3.45;1.30;;;;;;;;;;5074391;28;20113;-41
2022/12/12 12:44:30;;;;;;;2.80;1.08;;;;;;;;;;5074338;28;20023;-41
2022/12/12 12:46:55;;;;;;;0.77;0.77;;;;;;;;;;5074294;28;20036;-40
2022/12/12 12:49:40;;;;;;;0.70;0.70;;;;;;;;;;5072906;28;20031;-41
2022/12/12 12:52:24;;;;;;;1.70;1.10;;;;;;;;;;5074574;28;20028;-41
2022/12/12 12:54:51;;;;;;;1.75;1.08;;;;;;;;;;5074043;28;20526;-41
2022/12/12 12:57:20;;;;;;;2.08;0.88;;;;;;;;;;5072309;28;20382;-41
2022/12/12 12:59:48;;;;;;;2.15;1.45;;;;;;;;;;5074185;28;20040;-41
2022/12/12 13:02:52;;;;;;;0.98;0.98;;;;;;;;;;5073936;28;20512;-41
2022/12/12 13:05:40;;;;;;;3.13;1.02;;;;;;;;;;5031565;28;20495;-41
2022/12/12 13:08:25;;;;;;;2.10;1.17;;;;;;;;;;5031504;28;20026;-41
2022/12/12 13:10:55;;;;;;;2.05;0.95;;;;;;;;;;5063471;28;20033;-41
2022/12/12 13:13:29;;;;;;;1.38;1.27;;;;;;;;;;5072385;28;20036;-41
2022/12/12 13:16:07;;;;;;;1.33;1.20;;;;;;;;;;5073759;28;20032;-40
2022/12/12 13:18:33;;;;;;;1.70;1.13;;;;;;;;;;5073711;28;20025;-41
2022/12/12 13:20:58;;;;;;;2.97;1.73;;;;;;;;;;5073718;28;20107;-41
2022/12/12 13:23:46;;;;;;;1.70;1.25;;;;;;;;;;5073765;28;20108;-41
2022/12/12 13:26:17;;;;;;;1.33;1.23;;;;;;;;;;5073516;28;20165;-41
2022/12/12 13:28:46;;;;;;;0.95;0.93;;;;;;;;;;5072643;28;20124;-41
2022/12/12 13:31:18;;;;;;;1.25;1.15;;;;;;;;;;5073628;28;20634;-41
2022/12/12 13:34:01;;;;;;;1.20;1.10;;;;;;;;;;5073380;28;20036;-41
2022/12/12 13:36:27;;;;;;;;;;;;;;;;;;5073958;28;20451;-41
2022/12/12 13:38:55;;;;;;;4.05;1.52;;;;;;;;;;5073632;28;19967;-41
2022/12/12 13:41:20;;;;;;;1.70;1.48;;;;;;;;;;5073092;28;20506;-41
2022/12/12 13:43:47;;;;;;;2.45;0.80;;;;;;;;;;5073222;28;20024;-41
2022/12/12 13:46:23;;;;;;;1.70;1.50;;;;;;;;;;5073180;28;20039;-40
2022/12/12 13:49:07;;;;;;;1.30;1.08;;;;;;;;;;5073163;28;20475;-42
2022/12/12 13:51:37;;;;;;;5.30;1.25;;;;;;;;;;5073061;28;20032;-41
2022/12/12 13:54:05;;;;;;;1.40;0.98;;;;;;;;;;5073301;28;20540;-41
2022/12/12 13:56:33;;;;;;;1.50;1.40;;;;;;;;;;5072801;28;20051;-41
2022/12/12 13:58:58;;;;;;;1.92;1.20;;;;;;;;;;5072848;28;20107;-41
2022/12/12 14:01:32;;;;;;;1.67;1.20;;;;;;;;;;5072924;28;20207;-40
2022/12/12 14:03:58;;;;;;;2.03;1.50;;;;;;;;;;5072804;28;20075;-41
2022/12/12 14:06:26;;;;;;;2.42;1.42;;;;;;;;;;5072750;28;20060;-41
2022/12/12 14:08:52;;;;;;;2.80;1.40;;;;;;;;;;5072303;28;20024;-41
2022/12/12 14:11:25;;;;;;;2.63;1.38;;;;;;;;;;5072115;28;20036;-41
2022/12/12 14:14:00;;;;;;;1.55;0.75;;;;;;;;;;5072550;28;20056;-41
2022/12/12 14:16:26;;;;;;;5.90;1.73;;;;;;;;;;5072492;28;20024;-41
2022/12/12 14:19:05;;;;;;;1.98;1.00;;;;;;;;;;5072527;28;20043;-41
2022/12/12 14:21:38;;;;;;;2.72;1.33;;;;;;;;;;5072659;28;20029;-41
2022/12/12 14:24:22;;;;;;;2.25;1.52;;;;;;;;;;5072662;28;20458;-40
2022/12/12 14:26:48;;;;;;;2.20;1.27;;;;;;;;;;5072330;28;20028;-41
2022/12/12 14:29:16;;;;;;;2.53;1.10;;;;;;;;;;5072064;28;20035;-41
2022/12/12 14:31:44;;;;;;;3.15;1.58;;;;;;;;;;5072319;28;20028;-41
2022/12/12 14:34:13;;;;;;;1.15;1.05;;;;;;;;;;5070806;28;20059;-41
2022/12/12 14:36:51;;;;;;;3.00;0.82;;;;;;;;;;5071291;28;20082;-41
2022/12/12 14:39:44;;;;;;;1.50;1.40;;;;;;;;;;5072314;28;20382;-40
2022/12/12 14:42:09;;;;;;;;;;;;;;;;;;5072276;28;20116;-40
2022/12/12 14:44:41;;;;;;;2.50;1.48;;;;;;;;;;5071940;28;20362;-41
2022/12/12 14:47:07;;;;;;;1.02;1.02;;;;;;;;;;5072315;28;20041;-41
2022/12/12 14:49:32;;;;;;;2.00;1.60;;;;;;;;;;5072061;28;20034;-41
2022/12/12 14:51:58;;;;;;;5.93;3.05;;;;;;;;;;5071716;28;20049;-41
2022/12/12 14:54:23;;;;;;;1.67;1.17;;;;;;;;;;5071186;28;20039;-41
2022/12/12 14:56:50;;;;;;;2.53;1.45;;;;;;;;;;5071818;28;20036;-40
2022/12/12 14:59:16;;;;;;;2.50;1.02;;;;;;;;;;5070516;28;20060;-41
2022/12/12 15:01:43;;;;;;;1.05;0.80;;;;;;;;;;5071685;28;20185;-40
2022/12/12 15:04:11;;;;;;;1.42;1.13;;;;;;;;;;5071666;28;20111;-40
2022/12/12 15:06:38;;;;;;;2.42;1.15;;;;;;;;;;5071724;28;20033;-41
2022/12/12 15:09:06;;;;;;;2.22;1.42;;;;;;;;;;5071565;28;20121;-41
2022/12/12 15:11:32;;;;;;;3.60;1.10;;;;;;;;;;5071860;28;20032;-41